AFL783 LTAI-LGSA
Flight info
| Callsign | AFL783 |
|---|---|
| Flight time | 1h 1m |
| Altitude | 280 |
| Route | LTAI LORKO UW79 DAL UN136 IRA UJ65 BAVES LGSA |
| Aircraft | A321/M-S/L |
Departure
| Time | 2026-05-07 08:39 |
|---|---|
| Airport | Antalya International Airport (LTAI) |
Arrival
| Time | 2026-05-07 09:40 |
|---|---|
| Airport | Chania International Airport (LGSA) |
| Time | Latitude | Longitude | Altitude | Speed | Heading |
|---|---|---|---|---|---|
| 2026-05-07 08:20 | 36.91419 | 30.79816 | 166 ft | 0 kts | 276° |
| 2026-05-07 08:35 | 36.91420 | 30.79813 | 166 ft | 0 kts | 307° |
| 2026-05-07 08:36 | 36.91427 | 30.79812 | 166 ft | 1 kts | 357° |
| 2026-05-07 08:36 | 36.91456 | 30.79810 | 167 ft | 6 kts | 357° |
| 2026-05-07 08:36 | 36.91510 | 30.79789 | 168 ft | 11 kts | 304° |
| 2026-05-07 08:36 | 36.91530 | 30.79661 | 168 ft | 17 kts | 276° |
| 2026-05-07 08:37 | 36.91534 | 30.79611 | 170 ft | 0 kts | 276° |
| 2026-05-07 08:37 | 36.91537 | 30.79575 | 170 ft | 16 kts | 276° |
| 2026-05-07 08:38 | 36.91498 | 30.79470 | 172 ft | 14 kts | 193° |
| 2026-05-07 08:38 | 36.91478 | 30.79465 | 172 ft | 0 kts | 189° |
| 2026-05-07 08:38 | 36.91470 | 30.79464 | 172 ft | 1 kts | 189° |
| 2026-05-07 08:38 | 36.91457 | 30.79461 | 172 ft | 2 kts | 190° |
| 2026-05-07 08:39 | 36.91372 | 30.79449 | 172 ft | 45 kts | 185° |
| 2026-05-07 08:39 | 36.90724 | 30.79361 | 176 ft | 136 kts | 186° |
| 2026-05-07 08:39 | 36.89546 | 30.79208 | 266 ft | 198 kts | 187° |
| 2026-05-07 08:39 | 36.88133 | 30.78998 | 1095 ft | 208 kts | 190° |
| 2026-05-07 08:40 | 36.86769 | 30.78517 | 2160 ft | 208 kts | 204° |
| 2026-05-07 08:40 | 36.85492 | 30.77685 | 3088 ft | 221 kts | 209° |
| 2026-05-07 08:40 | 36.84047 | 30.76826 | 3778 ft | 235 kts | 203° |
| 2026-05-07 08:40 | 36.82526 | 30.76083 | 4469 ft | 241 kts | 201° |
| 2026-05-07 08:41 | 36.80946 | 30.75349 | 5225 ft | 244 kts | 200° |
| 2026-05-07 08:41 | 36.79369 | 30.74620 | 5976 ft | 247 kts | 200° |
| 2026-05-07 08:41 | 36.77748 | 30.73870 | 6716 ft | 250 kts | 201° |
| 2026-05-07 08:41 | 36.76100 | 30.73117 | 7388 ft | 256 kts | 200° |
| 2026-05-07 08:42 | 36.74407 | 30.72288 | 7795 ft | 272 kts | 210° |
| 2026-05-07 08:42 | 36.73004 | 30.70642 | 8194 ft | 284 kts | 242° |
| 2026-05-07 08:42 | 36.72415 | 30.68347 | 8836 ft | 284 kts | 269° |
| 2026-05-07 08:42 | 36.72420 | 30.65897 | 9622 ft | 284 kts | 274° |
| 2026-05-07 08:43 | 36.72458 | 30.63461 | 10353 ft | 287 kts | 274° |
| 2026-05-07 08:43 | 36.72481 | 30.60928 | 10841 ft | 299 kts | 274° |
| 2026-05-07 08:43 | 36.72494 | 30.58255 | 11169 ft | 316 kts | 273° |
| 2026-05-07 08:43 | 36.72497 | 30.55475 | 11482 ft | 333 kts | 273° |
| 2026-05-07 08:44 | 36.72564 | 30.52520 | 11766 ft | 347 kts | 277° |
| 2026-05-07 08:44 | 36.72742 | 30.49498 | 12129 ft | 359 kts | 278° |
| 2026-05-07 08:44 | 36.72957 | 30.46373 | 12724 ft | 363 kts | 279° |
| 2026-05-07 08:44 | 36.73219 | 30.43284 | 13384 ft | 364 kts | 280° |
| 2026-05-07 08:45 | 36.73495 | 30.40134 | 14037 ft | 366 kts | 280° |
| 2026-05-07 08:45 | 36.73772 | 30.36959 | 14653 ft | 369 kts | 280° |
| 2026-05-07 08:45 | 36.74045 | 30.33783 | 15037 ft | 378 kts | 279° |
| 2026-05-07 08:45 | 36.74328 | 30.30465 | 15337 ft | 387 kts | 279° |
| 2026-05-07 08:46 | 36.74600 | 30.27190 | 16123 ft | 382 kts | 279° |
| 2026-05-07 08:46 | 36.74869 | 30.23920 | 16951 ft | 376 kts | 279° |
| 2026-05-07 08:46 | 36.75250 | 30.20766 | 17669 ft | 370 kts | 285° |
| 2026-05-07 08:46 | 36.75937 | 30.17704 | 18385 ft | 363 kts | 292° |
| 2026-05-07 08:47 | 36.76903 | 30.14822 | 19105 ft | 357 kts | 298° |
| 2026-05-07 08:47 | 36.78018 | 30.12130 | 19824 ft | 352 kts | 300° |
| 2026-05-07 08:47 | 36.79164 | 30.09452 | 20558 ft | 347 kts | 301° |
| 2026-05-07 08:47 | 36.80280 | 30.06850 | 21289 ft | 343 kts | 301° |
| 2026-05-07 08:48 | 36.81395 | 30.04244 | 22036 ft | 338 kts | 300° |
| 2026-05-07 08:48 | 36.82310 | 30.01609 | 22773 ft | 336 kts | 291° |
| 2026-05-07 08:48 | 36.82777 | 29.98764 | 23516 ft | 336 kts | 280° |
| 2026-05-07 08:48 | 36.82791 | 29.95785 | 23786 ft | 350 kts | 269° |
| 2026-05-07 08:49 | 36.82492 | 29.92819 | 24472 ft | 347 kts | 267° |
| 2026-05-07 08:49 | 36.82162 | 29.89840 | 25130 ft | 345 kts | 267° |
| 2026-05-07 08:49 | 36.81839 | 29.86922 | 25732 ft | 343 kts | 267° |
| 2026-05-07 08:49 | 36.81517 | 29.83978 | 26340 ft | 340 kts | 267° |
| 2026-05-07 08:50 | 36.81204 | 29.81098 | 26942 ft | 338 kts | 267° |
| 2026-05-07 08:50 | 36.80889 | 29.78202 | 27541 ft | 335 kts | 267° |
| 2026-05-07 08:50 | 36.80574 | 29.75317 | 28026 ft | 335 kts | 266° |
| 2026-05-07 08:50 | 36.80246 | 29.72442 | 28230 ft | 344 kts | 266° |
| 2026-05-07 08:51 | 36.79899 | 29.69423 | 28235 ft | 357 kts | 266° |
| 2026-05-07 08:51 | 36.79537 | 29.66276 | 28241 ft | 370 kts | 266° |
| 2026-05-07 08:51 | 36.79162 | 29.63051 | 28242 ft | 382 kts | 266° |
| 2026-05-07 08:51 | 36.78778 | 29.59744 | 28241 ft | 394 kts | 266° |
| 2026-05-07 08:52 | 36.78376 | 29.56293 | 28241 ft | 405 kts | 266° |
| 2026-05-07 08:52 | 36.77964 | 29.52779 | 28239 ft | 416 kts | 266° |
| 2026-05-07 08:52 | 36.77105 | 29.45483 | 28240 ft | 435 kts | 265° |
| 2026-05-07 08:53 | 36.76219 | 29.37989 | 28236 ft | 440 kts | 265° |
| 2026-05-07 08:53 | 36.75323 | 29.30467 | 28236 ft | 441 kts | 265° |
| 2026-05-07 08:54 | 36.74419 | 29.22894 | 28231 ft | 440 kts | 265° |
| 2026-05-07 08:54 | 36.73517 | 29.15383 | 28226 ft | 440 kts | 265° |
| 2026-05-07 08:55 | 36.72610 | 29.07875 | 28203 ft | 440 kts | 265° |
| 2026-05-07 08:55 | 36.71697 | 29.00361 | 28176 ft | 441 kts | 265° |
| 2026-05-07 08:56 | 36.70776 | 28.92843 | 28159 ft | 441 kts | 265° |
| 2026-05-07 08:56 | 36.69853 | 28.85334 | 28156 ft | 440 kts | 265° |
| 2026-05-07 08:57 | 36.68383 | 28.77920 | 28156 ft | 447 kts | 254° |
| 2026-05-07 08:57 | 36.65601 | 28.70900 | 28159 ft | 453 kts | 245° |
| 2026-05-07 08:58 | 36.62435 | 28.64154 | 28157 ft | 453 kts | 245° |
| 2026-05-07 08:58 | 36.59260 | 28.57405 | 28155 ft | 454 kts | 245° |
| 2026-05-07 08:59 | 36.56091 | 28.50649 | 28154 ft | 454 kts | 245° |
| 2026-05-07 08:59 | 36.52747 | 28.43992 | 28156 ft | 457 kts | 242° |
| 2026-05-07 09:00 | 36.49307 | 28.37399 | 28155 ft | 456 kts | 242° |
| 2026-05-07 09:00 | 36.45857 | 28.30806 | 28154 ft | 457 kts | 242° |
| 2026-05-07 09:01 | 36.42370 | 28.24146 | 28155 ft | 459 kts | 242° |
| 2026-05-07 09:01 | 36.38891 | 28.17524 | 28159 ft | 460 kts | 242° |
| 2026-05-07 09:02 | 36.35461 | 28.10861 | 28160 ft | 459 kts | 244° |
| 2026-05-07 09:02 | 36.32574 | 28.03887 | 28163 ft | 454 kts | 251° |
| 2026-05-07 09:03 | 36.30176 | 27.96691 | 28165 ft | 453 kts | 252° |
| 2026-05-07 09:03 | 36.27806 | 27.89492 | 28166 ft | 453 kts | 252° |
| 2026-05-07 09:04 | 36.25430 | 27.82305 | 28167 ft | 452 kts | 252° |
| 2026-05-07 09:04 | 36.23031 | 27.75073 | 28166 ft | 452 kts | 252° |
| 2026-05-07 09:05 | 36.20641 | 27.67892 | 28162 ft | 453 kts | 252° |
| 2026-05-07 09:05 | 36.18241 | 27.60707 | 28162 ft | 453 kts | 252° |
| 2026-05-07 09:06 | 36.15840 | 27.53517 | 28162 ft | 453 kts | 252° |
| 2026-05-07 09:06 | 36.13433 | 27.46322 | 28164 ft | 454 kts | 252° |
| 2026-05-07 09:07 | 36.11019 | 27.39136 | 28162 ft | 453 kts | 252° |
| 2026-05-07 09:07 | 36.08661 | 27.31925 | 28158 ft | 455 kts | 252° |
| 2026-05-07 09:08 | 36.06345 | 27.24630 | 28145 ft | 456 kts | 252° |
| 2026-05-07 09:08 | 36.04030 | 27.17367 | 28143 ft | 457 kts | 252° |
| 2026-05-07 09:09 | 36.01702 | 27.10106 | 28143 ft | 456 kts | 252° |
| 2026-05-07 09:09 | 35.99373 | 27.02864 | 28143 ft | 456 kts | 252° |
| 2026-05-07 09:10 | 35.97037 | 26.95618 | 28141 ft | 456 kts | 252° |
| 2026-05-07 09:10 | 35.94695 | 26.88383 | 28141 ft | 455 kts | 252° |
| 2026-05-07 09:11 | 35.92352 | 26.81160 | 28144 ft | 456 kts | 252° |
| 2026-05-07 09:11 | 35.89787 | 26.73971 | 28143 ft | 458 kts | 247° |
| 2026-05-07 09:12 | 35.86866 | 26.67011 | 28146 ft | 459 kts | 246° |
| 2026-05-07 09:12 | 35.84037 | 26.59999 | 28143 ft | 457 kts | 250° |
| 2026-05-07 09:13 | 35.81552 | 26.52833 | 28148 ft | 456 kts | 251° |
| 2026-05-07 09:13 | 35.79084 | 26.45676 | 28147 ft | 455 kts | 251° |
| 2026-05-07 09:14 | 35.76613 | 26.38535 | 28147 ft | 454 kts | 251° |
| 2026-05-07 09:14 | 35.74133 | 26.31388 | 28148 ft | 455 kts | 250° |
| 2026-05-07 09:15 | 35.71654 | 26.24259 | 28146 ft | 455 kts | 250° |
| 2026-05-07 09:15 | 35.69154 | 26.17088 | 28148 ft | 454 kts | 250° |
| 2026-05-07 09:16 | 35.66672 | 26.09989 | 28150 ft | 454 kts | 250° |
| 2026-05-07 09:16 | 35.64182 | 26.02879 | 28150 ft | 455 kts | 250° |
| 2026-05-07 09:17 | 35.61682 | 25.95763 | 28149 ft | 455 kts | 250° |
| 2026-05-07 09:17 | 35.59181 | 25.88657 | 28150 ft | 455 kts | 250° |
| 2026-05-07 09:18 | 35.56672 | 25.81562 | 28150 ft | 454 kts | 250° |
| 2026-05-07 09:18 | 35.54158 | 25.74480 | 28152 ft | 453 kts | 250° |
| 2026-05-07 09:19 | 35.51628 | 25.67367 | 28153 ft | 452 kts | 250° |
| 2026-05-07 09:19 | 35.49118 | 25.60331 | 28156 ft | 451 kts | 250° |
| 2026-05-07 09:20 | 35.46611 | 25.53317 | 28153 ft | 450 kts | 250° |
| 2026-05-07 09:20 | 35.44098 | 25.46305 | 28161 ft | 450 kts | 250° |
| 2026-05-07 09:21 | 35.41584 | 25.39302 | 28163 ft | 450 kts | 250° |
| 2026-05-07 09:21 | 35.40316 | 25.35782 | 27882 ft | 449 kts | 250° |
| 2026-05-07 09:21 | 35.39082 | 25.32357 | 27376 ft | 440 kts | 249° |
| 2026-05-07 09:22 | 35.37848 | 25.28938 | 26734 ft | 435 kts | 249° |
| 2026-05-07 09:22 | 35.36648 | 25.25613 | 26128 ft | 429 kts | 249° |
| 2026-05-07 09:22 | 35.35488 | 25.22270 | 25529 ft | 421 kts | 253° |
| 2026-05-07 09:22 | 35.34836 | 25.18820 | 24942 ft | 411 kts | 265° |
| 2026-05-07 09:23 | 35.34781 | 25.15411 | 24374 ft | 402 kts | 276° |
| 2026-05-07 09:23 | 35.35237 | 25.12065 | 23806 ft | 394 kts | 283° |
| 2026-05-07 09:23 | 35.35831 | 25.08846 | 23213 ft | 391 kts | 284° |
| 2026-05-07 09:23 | 35.36443 | 25.05612 | 22646 ft | 387 kts | 284° |
| 2026-05-07 09:24 | 35.37037 | 25.02459 | 22091 ft | 383 kts | 284° |
| 2026-05-07 09:24 | 35.37629 | 24.99285 | 21535 ft | 380 kts | 284° |
| 2026-05-07 09:24 | 35.38210 | 24.96137 | 20996 ft | 376 kts | 284° |
| 2026-05-07 09:24 | 35.38775 | 24.93069 | 20519 ft | 371 kts | 284° |
| 2026-05-07 09:25 | 35.39341 | 24.89984 | 20007 ft | 368 kts | 284° |
| 2026-05-07 09:25 | 35.39890 | 24.86972 | 19507 ft | 364 kts | 284° |
| 2026-05-07 09:25 | 35.40442 | 24.83944 | 19007 ft | 361 kts | 284° |
| 2026-05-07 09:25 | 35.40980 | 24.80983 | 18502 ft | 359 kts | 284° |
| 2026-05-07 09:26 | 35.41522 | 24.77995 | 17977 ft | 357 kts | 284° |
| 2026-05-07 09:26 | 35.42060 | 24.75029 | 17476 ft | 354 kts | 284° |
| 2026-05-07 09:26 | 35.42586 | 24.72122 | 16971 ft | 352 kts | 284° |
| 2026-05-07 09:26 | 35.43117 | 24.69196 | 16470 ft | 350 kts | 284° |
| 2026-05-07 09:27 | 35.43634 | 24.66326 | 15969 ft | 348 kts | 284° |
| 2026-05-07 09:27 | 35.44158 | 24.63426 | 15431 ft | 347 kts | 284° |
| 2026-05-07 09:27 | 35.45190 | 24.57679 | 14379 ft | 346 kts | 284° |
| 2026-05-07 09:28 | 35.45705 | 24.54800 | 13856 ft | 344 kts | 285° |
| 2026-05-07 09:28 | 35.46209 | 24.51976 | 13370 ft | 342 kts | 285° |
| 2026-05-07 09:28 | 35.46718 | 24.49130 | 12860 ft | 340 kts | 284° |
| 2026-05-07 09:28 | 35.47216 | 24.46342 | 12356 ft | 337 kts | 285° |
| 2026-05-07 09:29 | 35.47716 | 24.43536 | 11850 ft | 335 kts | 285° |
| 2026-05-07 09:29 | 35.48204 | 24.40790 | 11405 ft | 330 kts | 285° |
| 2026-05-07 09:29 | 35.48685 | 24.38076 | 11185 ft | 318 kts | 284° |
| 2026-05-07 09:29 | 35.49148 | 24.35457 | 10978 ft | 307 kts | 285° |
| 2026-05-07 09:30 | 35.49587 | 24.32966 | 10783 ft | 296 kts | 284° |
| 2026-05-07 09:30 | 35.50017 | 24.30528 | 10600 ft | 286 kts | 284° |
| 2026-05-07 09:30 | 35.50425 | 24.28209 | 10418 ft | 276 kts | 284° |
| 2026-05-07 09:30 | 35.50823 | 24.25946 | 10272 ft | 265 kts | 284° |
| 2026-05-07 09:31 | 35.51198 | 24.23804 | 10130 ft | 255 kts | 284° |
| 2026-05-07 09:31 | 35.51573 | 24.21677 | 9784 ft | 254 kts | 284° |
| 2026-05-07 09:31 | 35.51945 | 24.19558 | 9449 ft | 252 kts | 284° |
| 2026-05-07 09:31 | 35.52270 | 24.17469 | 9117 ft | 252 kts | 281° |
| 2026-05-07 09:32 | 35.52470 | 24.15328 | 8779 ft | 251 kts | 277° |
| 2026-05-07 09:32 | 35.52623 | 24.13223 | 8448 ft | 250 kts | 276° |
| 2026-05-07 09:32 | 35.52774 | 24.11093 | 8109 ft | 249 kts | 276° |
| 2026-05-07 09:32 | 35.52920 | 24.08999 | 7777 ft | 249 kts | 276° |
| 2026-05-07 09:33 | 35.53067 | 24.06881 | 7444 ft | 248 kts | 275° |
| 2026-05-07 09:33 | 35.53215 | 24.04771 | 7108 ft | 247 kts | 275° |
| 2026-05-07 09:33 | 35.53360 | 24.02698 | 6780 ft | 246 kts | 275° |
| 2026-05-07 09:33 | 35.53505 | 24.00598 | 6466 ft | 246 kts | 275° |
| 2026-05-07 09:34 | 35.53646 | 23.98530 | 6150 ft | 245 kts | 275° |
| 2026-05-07 09:34 | 35.53789 | 23.96437 | 5826 ft | 244 kts | 275° |
| 2026-05-07 09:34 | 35.53939 | 23.94386 | 5507 ft | 244 kts | 274° |
| 2026-05-07 09:34 | 35.54103 | 23.92308 | 5153 ft | 244 kts | 279° |
| 2026-05-07 09:35 | 35.54765 | 23.90395 | 4804 ft | 245 kts | 308° |
| 2026-05-07 09:35 | 35.56042 | 23.89068 | 4484 ft | 244 kts | 333° |
| 2026-05-07 09:35 | 35.57647 | 23.88513 | 4370 ft | 235 kts | 357° |
| 2026-05-07 09:35 | 35.59246 | 23.88771 | 4305 ft | 235 kts | 21° |
| 2026-05-07 09:36 | 35.60644 | 23.89795 | 4232 ft | 233 kts | 45° |
| 2026-05-07 09:36 | 35.61572 | 23.91377 | 4150 ft | 231 kts | 68° |
| 2026-05-07 09:36 | 35.61924 | 23.93286 | 3984 ft | 228 kts | 91° |
| 2026-05-07 09:36 | 35.61647 | 23.95192 | 3821 ft | 226 kts | 112° |
| 2026-05-07 09:37 | 35.60965 | 23.96900 | 3644 ft | 224 kts | 121° |
| 2026-05-07 09:37 | 35.60173 | 23.98553 | 3376 ft | 225 kts | 122° |
| 2026-05-07 09:37 | 35.59387 | 24.00189 | 2980 ft | 220 kts | 121° |
| 2026-05-07 09:37 | 35.58637 | 24.01783 | 2648 ft | 209 kts | 120° |
| 2026-05-07 09:38 | 35.57922 | 24.03280 | 2355 ft | 203 kts | 125° |
| 2026-05-07 09:38 | 35.57017 | 24.04572 | 2178 ft | 188 kts | 132° |
| 2026-05-07 09:38 | 35.56259 | 24.05699 | 2235 ft | 160 kts | 121° |
| 2026-05-07 09:38 | 35.55794 | 24.06891 | 1929 ft | 152 kts | 111° |
| 2026-05-07 09:39 | 35.55417 | 24.08081 | 1558 ft | 146 kts | 111° |
| 2026-05-07 09:39 | 35.55042 | 24.09201 | 1231 ft | 142 kts | 111° |
| 2026-05-07 09:39 | 35.54689 | 24.10330 | 984 ft | 141 kts | 111° |
| 2026-05-07 09:39 | 35.54325 | 24.11441 | 783 ft | 142 kts | 110° |
| 2026-05-07 09:40 | 35.53962 | 24.12569 | 601 ft | 140 kts | 110° |
| 2026-05-07 09:40 | 35.53603 | 24.13667 | 436 ft | 132 kts | 110° |
| 2026-05-07 09:40 | 35.53314 | 24.14564 | 442 ft | 82 kts | 113° |
| 2026-05-07 09:40 | 35.53176 | 24.14982 | 452 ft | 28 kts | 111° |
| 2026-05-07 09:41 | 35.53194 | 24.15130 | 451 ft | 12 kts | 28° |
| 2026-05-07 09:41 | 35.53287 | 24.15152 | 446 ft | 16 kts | 324° |
| 2026-05-07 09:41 | 35.53343 | 24.15023 | 443 ft | 18 kts | 292° |
| 2026-05-07 09:41 | 35.53397 | 24.14871 | 440 ft | 20 kts | 294° |
| 2026-05-07 09:42 | 35.53445 | 24.14704 | 434 ft | 22 kts | 292° |
| 2026-05-07 09:42 | 35.53508 | 24.14520 | 430 ft | 23 kts | 292° |